sensor_id;sensor_type;location;lat;lon;timestamp;P1;durP1;ratioP1;P2;durP2;ratioP2
6809;SDS011;3443;48.812;9.112;2022-08-21T00:01:45;1.15;;;0.73;;
6809;SDS011;3443;48.812;9.112;2022-08-21T00:04:12;0.50;;;0.50;;
6809;SDS011;3443;48.812;9.112;2022-08-21T00:06:38;0.75;;;0.60;;
6809;SDS011;3443;48.812;9.112;2022-08-21T00:09:05;1.55;;;0.90;;
6809;SDS011;3443;48.812;9.112;2022-08-21T00:11:33;3.22;;;0.90;;
6809;SDS011;3443;48.812;9.112;2022-08-21T00:14:00;1.00;;;0.70;;
6809;SDS011;3443;48.812;9.112;2022-08-21T00:16:26;1.92;;;1.48;;
6809;SDS011;3443;48.812;9.112;2022-08-21T00:18:52;2.75;;;0.82;;
6809;SDS011;3443;48.812;9.112;2022-08-21T00:21:18;1.75;;;0.88;;
6809;SDS011;3443;48.812;9.112;2022-08-21T00:23:44;1.23;;;0.90;;
6809;SDS011;3443;48.812;9.112;2022-08-21T00:26:11;2.08;;;0.98;;
6809;SDS011;3443;48.812;9.112;2022-08-21T00:28:37;1.63;;;0.90;;
6809;SDS011;3443;48.812;9.112;2022-08-21T00:31:06;1.17;;;0.85;;
6809;SDS011;3443;48.812;9.112;2022-08-21T00:33:32;1.77;;;0.88;;
6809;SDS011;3443;48.812;9.112;2022-08-21T00:35:59;1.50;;;1.10;;
6809;SDS011;3443;48.812;9.112;2022-08-21T00:38:26;1.65;;;1.08;;
6809;SDS011;3443;48.812;9.112;2022-08-21T00:40:53;0.90;;;0.90;;
6809;SDS011;3443;48.812;9.112;2022-08-21T00:43:21;1.17;;;1.08;;
6809;SDS011;3443;48.812;9.112;2022-08-21T00:45:48;1.52;;;1.27;;
6809;SDS011;3443;48.812;9.112;2022-08-21T00:48:14;2.72;;;0.90;;
6809;SDS011;3443;48.812;9.112;2022-08-21T00:50:45;1.80;;;1.40;;
6809;SDS011;3443;48.812;9.112;2022-08-21T00:53:14;1.20;;;1.10;;
6809;SDS011;3443;48.812;9.112;2022-08-21T00:55:40;1.25;;;1.02;;
6809;SDS011;3443;48.812;9.112;2022-08-21T00:58:08;2.08;;;0.82;;
6809;SDS011;3443;48.812;9.112;2022-08-21T01:00:36;1.00;;;1.00;;
6809;SDS011;3443;48.812;9.112;2022-08-21T01:03:06;1.25;;;1.08;;
6809;SDS011;3443;48.812;9.112;2022-08-21T01:05:32;1.08;;;1.08;;
6809;SDS011;3443;48.812;9.112;2022-08-21T01:07:58;0.80;;;0.80;;
6809;SDS011;3443;48.812;9.112;2022-08-21T01:10:24;1.10;;;1.00;;
6809;SDS011;3443;48.812;9.112;2022-08-21T01:12:52;1.00;;;0.90;;
6809;SDS011;3443;48.812;9.112;2022-08-21T01:15:19;0.90;;;0.90;;
6809;SDS011;3443;48.812;9.112;2022-08-21T01:17:48;1.58;;;0.93;;
6809;SDS011;3443;48.812;9.112;2022-08-21T01:20:15;1.17;;;1.00;;
6809;SDS011;3443;48.812;9.112;2022-08-21T01:22:41;0.95;;;0.95;;
6809;SDS011;3443;48.812;9.112;2022-08-21T01:25:09;3.15;;;0.95;;
6809;SDS011;3443;48.812;9.112;2022-08-21T01:27:35;2.38;;;0.85;;
6809;SDS011;3443;48.812;9.112;2022-08-21T01:30:10;1.73;;;1.08;;
6809;SDS011;3443;48.812;9.112;2022-08-21T01:32:37;0.77;;;0.77;;
6809;SDS011;3443;48.812;9.112;2022-08-21T01:35:04;3.28;;;1.10;;
6809;SDS011;3443;48.812;9.112;2022-08-21T01:37:30;2.40;;;0.95;;
6809;SDS011;3443;48.812;9.112;2022-08-21T01:39:56;1.42;;;1.00;;
6809;SDS011;3443;48.812;9.112;2022-08-21T01:42:22;1.63;;;0.85;;
6809;SDS011;3443;48.812;9.112;2022-08-21T01:44:49;2.78;;;1.05;;
6809;SDS011;3443;48.812;9.112;2022-08-21T01:47:15;1.67;;;1.13;;
6809;SDS011;3443;48.812;9.112;2022-08-21T01:49:41;1.02;;;0.90;;
6809;SDS011;3443;48.812;9.112;2022-08-21T01:52:08;2.10;;;1.00;;
6809;SDS011;3443;48.812;9.112;2022-08-21T01:54:34;1.08;;;0.98;;
6809;SDS011;3443;48.812;9.112;2022-08-21T01:57:00;2.03;;;1.10;;
6809;SDS011;3443;48.812;9.112;2022-08-21T01:59:27;1.83;;;0.90;;
6809;SDS011;3443;48.812;9.112;2022-08-21T02:01:54;1.13;;;1.13;;
6809;SDS011;3443;48.812;9.112;2022-08-21T02:04:20;1.05;;;1.05;;
6809;SDS011;3443;48.812;9.112;2022-08-21T02:06:49;3.50;;;0.90;;
6809;SDS011;3443;48.812;9.112;2022-08-21T02:09:15;1.63;;;1.02;;
6809;SDS011;3443;48.812;9.112;2022-08-21T02:11:48;0.82;;;0.82;;
6809;SDS011;3443;48.812;9.112;2022-08-21T02:14:14;2.90;;;0.95;;
6809;SDS011;3443;48.812;9.112;2022-08-21T02:16:42;0.80;;;0.80;;
6809;SDS011;3443;48.812;9.112;2022-08-21T02:19:08;1.42;;;1.00;;
6809;SDS011;3443;48.812;9.112;2022-08-21T02:21:35;0.90;;;0.90;;
6809;SDS011;3443;48.812;9.112;2022-08-21T02:24:01;1.08;;;1.05;;
6809;SDS011;3443;48.812;9.112;2022-08-21T02:26:27;3.65;;;1.00;;
6809;SDS011;3443;48.812;9.112;2022-08-21T02:28:54;2.05;;;1.10;;
6809;SDS011;3443;48.812;9.112;2022-08-21T02:31:20;1.35;;;0.98;;
6809;SDS011;3443;48.812;9.112;2022-08-21T02:33:46;1.13;;;1.02;;
6809;SDS011;3443;48.812;9.112;2022-08-21T02:36:13;1.45;;;1.30;;
6809;SDS011;3443;48.812;9.112;2022-08-21T02:38:41;1.73;;;1.27;;
6809;SDS011;3443;48.812;9.112;2022-08-21T02:41:11;1.95;;;1.10;;
6809;SDS011;3443;48.812;9.112;2022-08-21T02:43:38;1.58;;;1.00;;
6809;SDS011;3443;48.812;9.112;2022-08-21T02:46:05;1.35;;;0.82;;
6809;SDS011;3443;48.812;9.112;2022-08-21T02:48:32;1.08;;;1.08;;
6809;SDS011;3443;48.812;9.112;2022-08-21T02:51:00;3.10;;;1.30;;
6809;SDS011;3443;48.812;9.112;2022-08-21T02:53:27;1.35;;;1.02;;
6809;SDS011;3443;48.812;9.112;2022-08-21T02:55:54;1.55;;;1.17;;
6809;SDS011;3443;48.812;9.112;2022-08-21T02:58:25;0.93;;;0.93;;
6809;SDS011;3443;48.812;9.112;2022-08-21T03:00:52;2.05;;;1.52;;
6809;SDS011;3443;48.812;9.112;2022-08-21T03:03:18;0.98;;;0.98;;
6809;SDS011;3443;48.812;9.112;2022-08-21T03:05:46;2.83;;;1.13;;
6809;SDS011;3443;48.812;9.112;2022-08-21T03:08:13;1.55;;;1.10;;
6809;SDS011;3443;48.812;9.112;2022-08-21T03:10:43;2.63;;;1.10;;
6809;SDS011;3443;48.812;9.112;2022-08-21T03:13:10;3.72;;;1.17;;
6809;SDS011;3443;48.812;9.112;2022-08-21T03:15:36;4.40;;;1.30;;
6809;SDS011;3443;48.812;9.112;2022-08-21T03:18:03;1.23;;;0.98;;
6809;SDS011;3443;48.812;9.112;2022-08-21T03:20:30;2.17;;;1.15;;
6809;SDS011;3443;48.812;9.112;2022-08-21T03:22:57;1.13;;;0.90;;
6809;SDS011;3443;48.812;9.112;2022-08-21T03:25:24;1.95;;;1.10;;
6809;SDS011;3443;48.812;9.112;2022-08-21T03:27:50;2.60;;;1.05;;
6809;SDS011;3443;48.812;9.112;2022-08-21T03:30:16;1.20;;;1.20;;
6809;SDS011;3443;48.812;9.112;2022-08-21T03:32:44;1.75;;;1.10;;
6809;SDS011;3443;48.812;9.112;2022-08-21T03:35:11;1.52;;;1.30;;
6809;SDS011;3443;48.812;9.112;2022-08-21T03:37:38;1.42;;;1.10;;
6809;SDS011;3443;48.812;9.112;2022-08-21T03:40:05;1.00;;;1.00;;
6809;SDS011;3443;48.812;9.112;2022-08-21T03:42:32;1.35;;;1.20;;
6809;SDS011;3443;48.812;9.112;2022-08-21T03:44:58;1.45;;;1.35;;
6809;SDS011;3443;48.812;9.112;2022-08-21T03:47:24;1.30;;;1.20;;
6809;SDS011;3443;48.812;9.112;2022-08-21T03:49:50;1.58;;;1.10;;
6809;SDS011;3443;48.812;9.112;2022-08-21T03:52:16;1.20;;;1.20;;
6809;SDS011;3443;48.812;9.112;2022-08-21T03:54:43;1.48;;;1.38;;
6809;SDS011;3443;48.812;9.112;2022-08-21T03:57:09;2.97;;;1.30;;
6809;SDS011;3443;48.812;9.112;2022-08-21T03:59:36;1.80;;;1.25;;
6809;SDS011;3443;48.812;9.112;2022-08-21T04:02:03;1.17;;;1.17;;
6809;SDS011;3443;48.812;9.112;2022-08-21T04:04:29;1.30;;;1.20;;
6809;SDS011;3443;48.812;9.112;2022-08-21T04:06:56;2.17;;;1.63;;
6809;SDS011;3443;48.812;9.112;2022-08-21T04:09:22;1.75;;;1.40;;
6809;SDS011;3443;48.812;9.112;2022-08-21T04:11:48;1.75;;;1.30;;
6809;SDS011;3443;48.812;9.112;2022-08-21T04:14:15;1.40;;;1.30;;
6809;SDS011;3443;48.812;9.112;2022-08-21T04:16:42;1.30;;;1.20;;
6809;SDS011;3443;48.812;9.112;2022-08-21T04:19:08;3.28;;;1.42;;
6809;SDS011;3443;48.812;9.112;2022-08-21T04:21:37;2.70;;;1.25;;
6809;SDS011;3443;48.812;9.112;2022-08-21T04:24:04;2.67;;;1.20;;
6809;SDS011;3443;48.812;9.112;2022-08-21T04:26:32;1.40;;;1.30;;
6809;SDS011;3443;48.812;9.112;2022-08-21T04:28:59;1.65;;;1.50;;
6809;SDS011;3443;48.812;9.112;2022-08-21T04:31:28;1.33;;;1.23;;
6809;SDS011;3443;48.812;9.112;2022-08-21T04:33:54;2.25;;;1.70;;
6809;SDS011;3443;48.812;9.112;2022-08-21T04:36:23;1.58;;;1.27;;
6809;SDS011;3443;48.812;9.112;2022-08-21T04:38:49;2.47;;;1.40;;
6809;SDS011;3443;48.812;9.112;2022-08-21T04:41:15;2.72;;;1.33;;
6809;SDS011;3443;48.812;9.112;2022-08-21T04:43:46;1.30;;;1.30;;
6809;SDS011;3443;48.812;9.112;2022-08-21T04:46:12;2.05;;;1.42;;
6809;SDS011;3443;48.812;9.112;2022-08-21T04:48:38;1.58;;;1.30;;
6809;SDS011;3443;48.812;9.112;2022-08-21T04:51:08;1.48;;;1.23;;
6809;SDS011;3443;48.812;9.112;2022-08-21T04:53:40;1.35;;;1.20;;
6809;SDS011;3443;48.812;9.112;2022-08-21T04:56:10;2.47;;;1.13;;
6809;SDS011;3443;48.812;9.112;2022-08-21T04:58:37;1.88;;;1.25;;
6809;SDS011;3443;48.812;9.112;2022-08-21T05:01:04;1.98;;;1.27;;
6809;SDS011;3443;48.812;9.112;2022-08-21T05:03:33;2.97;;;1.40;;
6809;SDS011;3443;48.812;9.112;2022-08-21T05:06:00;1.63;;;1.52;;
6809;SDS011;3443;48.812;9.112;2022-08-21T05:08:28;1.73;;;1.60;;
6809;SDS011;3443;48.812;9.112;2022-08-21T05:10:54;1.55;;;1.45;;
6809;SDS011;3443;48.812;9.112;2022-08-21T05:13:21;2.30;;;1.80;;
6809;SDS011;3443;48.812;9.112;2022-08-21T05:15:47;1.83;;;1.08;;
6809;SDS011;3443;48.812;9.112;2022-08-21T05:18:13;1.40;;;1.40;;
6809;SDS011;3443;48.812;9.112;2022-08-21T05:20:39;2.35;;;1.35;;
6809;SDS011;3443;48.812;9.112;2022-08-21T05:23:09;1.73;;;1.63;;
6809;SDS011;3443;48.812;9.112;2022-08-21T05:25:35;1.92;;;1.60;;
6809;SDS011;3443;48.812;9.112;2022-08-21T05:28:01;1.55;;;1.42;;
6809;SDS011;3443;48.812;9.112;2022-08-21T05:30:28;1.45;;;1.35;;
6809;SDS011;3443;48.812;9.112;2022-08-21T05:32:57;1.40;;;1.17;;
6809;SDS011;3443;48.812;9.112;2022-08-21T05:35:24;1.50;;;1.40;;
6809;SDS011;3443;48.812;9.112;2022-08-21T05:37:50;3.20;;;1.48;;
6809;SDS011;3443;48.812;9.112;2022-08-21T05:40:16;1.45;;;1.45;;
6809;SDS011;3443;48.812;9.112;2022-08-21T05:42:43;1.98;;;1.40;;
6809;SDS011;3443;48.812;9.112;2022-08-21T05:45:09;1.23;;;1.20;;
6809;SDS011;3443;48.812;9.112;2022-08-21T05:47:35;1.60;;;1.50;;
6809;SDS011;3443;48.812;9.112;2022-08-21T05:50:02;2.78;;;1.65;;
6809;SDS011;3443;48.812;9.112;2022-08-21T05:52:28;2.15;;;1.67;;
6809;SDS011;3443;48.812;9.112;2022-08-21T05:54:54;1.92;;;1.63;;
6809;SDS011;3443;48.812;9.112;2022-08-21T05:57:21;2.67;;;1.65;;
6809;SDS011;3443;48.812;9.112;2022-08-21T05:59:47;1.38;;;1.27;;
6809;SDS011;3443;48.812;9.112;2022-08-21T06:02:13;2.97;;;1.50;;
6809;SDS011;3443;48.812;9.112;2022-08-21T06:04:40;2.08;;;1.58;;
6809;SDS011;3443;48.812;9.112;2022-08-21T06:07:06;1.55;;;1.23;;
6809;SDS011;3443;48.812;9.112;2022-08-21T06:09:33;1.70;;;1.60;;
6809;SDS011;3443;48.812;9.112;2022-08-21T06:12:03;1.80;;;1.70;;
6809;SDS011;3443;48.812;9.112;2022-08-21T06:14:29;1.75;;;1.65;;
6809;SDS011;3443;48.812;9.112;2022-08-21T06:17:01;2.20;;;1.80;;
6809;SDS011;3443;48.812;9.112;2022-08-21T06:19:27;1.45;;;1.40;;
6809;SDS011;3443;48.812;9.112;2022-08-21T06:21:53;2.65;;;1.50;;
6809;SDS011;3443;48.812;9.112;2022-08-21T06:24:19;1.63;;;1.50;;
6809;SDS011;3443;48.812;9.112;2022-08-21T06:26:45;1.20;;;1.20;;
6809;SDS011;3443;48.812;9.112;2022-08-21T06:29:12;2.47;;;1.70;;
6809;SDS011;3443;48.812;9.112;2022-08-21T06:31:41;1.65;;;1.52;;
6809;SDS011;3443;48.812;9.112;2022-08-21T06:34:08;2.65;;;1.98;;
6809;SDS011;3443;48.812;9.112;2022-08-21T06:36:34;2.08;;;1.77;;
6809;SDS011;3443;48.812;9.112;2022-08-21T06:39:00;1.92;;;1.80;;
6809;SDS011;3443;48.812;9.112;2022-08-21T06:41:26;3.08;;;2.00;;
6809;SDS011;3443;48.812;9.112;2022-08-21T06:43:53;4.00;;;2.10;;
6809;SDS011;3443;48.812;9.112;2022-08-21T06:46:20;3.22;;;1.67;;
6809;SDS011;3443;48.812;9.112;2022-08-21T06:48:46;2.17;;;1.98;;
6809;SDS011;3443;48.812;9.112;2022-08-21T06:51:12;1.92;;;1.58;;
6809;SDS011;3443;48.812;9.112;2022-08-21T06:53:38;2.58;;;1.58;;
6809;SDS011;3443;48.812;9.112;2022-08-21T06:56:04;1.83;;;1.58;;
6809;SDS011;3443;48.812;9.112;2022-08-21T06:58:30;2.20;;;1.83;;
6809;SDS011;3443;48.812;9.112;2022-08-21T07:00:57;5.00;;;2.13;;
6809;SDS011;3443;48.812;9.112;2022-08-21T07:03:25;4.32;;;2.08;;
6809;SDS011;3443;48.812;9.112;2022-08-21T07:05:52;5.65;;;1.88;;
6809;SDS011;3443;48.812;9.112;2022-08-21T07:08:19;2.55;;;2.15;;
6809;SDS011;3443;48.812;9.112;2022-08-21T07:10:45;1.67;;;1.40;;
6809;SDS011;3443;48.812;9.112;2022-08-21T07:13:12;2.13;;;1.77;;
6809;SDS011;3443;48.812;9.112;2022-08-21T07:15:38;5.22;;;1.95;;
6809;SDS011;3443;48.812;9.112;2022-08-21T07:18:06;3.85;;;2.13;;
6809;SDS011;3443;48.812;9.112;2022-08-21T07:20:32;2.60;;;1.63;;
6809;SDS011;3443;48.812;9.112;2022-08-21T07:23:00;3.13;;;2.00;;
6809;SDS011;3443;48.812;9.112;2022-08-21T07:25:26;4.10;;;2.10;;
6809;SDS011;3443;48.812;9.112;2022-08-21T07:27:52;4.32;;;2.53;;
6809;SDS011;3443;48.812;9.112;2022-08-21T07:30:19;4.07;;;2.05;;
6809;SDS011;3443;48.812;9.112;2022-08-21T07:32:45;3.70;;;1.73;;
6809;SDS011;3443;48.812;9.112;2022-08-21T07:35:14;5.30;;;1.90;;
6809;SDS011;3443;48.812;9.112;2022-08-21T07:37:40;4.32;;;2.22;;
6809;SDS011;3443;48.812;9.112;2022-08-21T07:40:08;4.53;;;2.08;;
6809;SDS011;3443;48.812;9.112;2022-08-21T07:42:34;3.35;;;2.10;;
6809;SDS011;3443;48.812;9.112;2022-08-21T07:45:05;5.43;;;2.22;;
6809;SDS011;3443;48.812;9.112;2022-08-21T07:47:33;6.18;;;2.28;;
6809;SDS011;3443;48.812;9.112;2022-08-21T07:49:59;5.93;;;2.25;;
6809;SDS011;3443;48.812;9.112;2022-08-21T07:52:25;3.28;;;2.08;;
6809;SDS011;3443;48.812;9.112;2022-08-21T07:54:52;2.70;;;2.05;;
6809;SDS011;3443;48.812;9.112;2022-08-21T07:57:18;5.72;;;2.38;;
6809;SDS011;3443;48.812;9.112;2022-08-21T07:59:44;3.90;;;2.53;;
6809;SDS011;3443;48.812;9.112;2022-08-21T08:02:20;5.25;;;2.92;;
6809;SDS011;3443;48.812;9.112;2022-08-21T08:04:46;2.13;;;1.90;;
6809;SDS011;3443;48.812;9.112;2022-08-21T08:07:13;5.43;;;2.25;;
6809;SDS011;3443;48.812;9.112;2022-08-21T08:09:39;2.20;;;1.90;;
6809;SDS011;3443;48.812;9.112;2022-08-21T08:12:05;3.30;;;2.05;;
6809;SDS011;3443;48.812;9.112;2022-08-21T08:14:31;1.88;;;1.70;;
6809;SDS011;3443;48.812;9.112;2022-08-21T08:16:58;3.80;;;2.17;;
6809;SDS011;3443;48.812;9.112;2022-08-21T08:19:24;4.22;;;2.15;;
6809;SDS011;3443;48.812;9.112;2022-08-21T08:21:50;2.25;;;2.05;;
6809;SDS011;3443;48.812;9.112;2022-08-21T08:24:18;3.90;;;2.10;;
6809;SDS011;3443;48.812;9.112;2022-08-21T08:26:44;2.58;;;1.80;;
6809;SDS011;3443;48.812;9.112;2022-08-21T08:29:10;3.05;;;2.25;;
6809;SDS011;3443;48.812;9.112;2022-08-21T08:31:36;3.40;;;1.80;;
6809;SDS011;3443;48.812;9.112;2022-08-21T08:34:02;2.97;;;2.10;;
6809;SDS011;3443;48.812;9.112;2022-08-21T08:36:32;2.55;;;1.75;;
6809;SDS011;3443;48.812;9.112;2022-08-21T08:38:59;3.00;;;1.88;;
6809;SDS011;3443;48.812;9.112;2022-08-21T08:41:26;3.92;;;2.20;;
6809;SDS011;3443;48.812;9.112;2022-08-21T08:43:53;2.13;;;1.95;;
6809;SDS011;3443;48.812;9.112;2022-08-21T08:46:55;2.47;;;1.70;;
6809;SDS011;3443;48.812;9.112;2022-08-21T08:49:17;2.78;;;1.88;;
6809;SDS011;3443;48.812;9.112;2022-08-21T08:51:50;2.58;;;1.58;;
6809;SDS011;3443;48.812;9.112;2022-08-21T08:54:20;5.43;;;2.45;;
6809;SDS011;3443;48.812;9.112;2022-08-21T08:56:48;4.68;;;2.30;;
6809;SDS011;3443;48.812;9.112;2022-08-21T08:59:26;2.10;;;1.70;;
6809;SDS011;3443;48.812;9.112;2022-08-21T09:01:52;2.50;;;2.03;;
6809;SDS011;3443;48.812;9.112;2022-08-21T09:04:25;2.35;;;2.17;;
6809;SDS011;3443;48.812;9.112;2022-08-21T09:06:56;3.92;;;1.65;;
6809;SDS011;3443;48.812;9.112;2022-08-21T09:11:58;4.30;;;2.30;;
6809;SDS011;3443;48.812;9.112;2022-08-21T09:14:37;3.42;;;2.25;;
6809;SDS011;3443;48.812;9.112;2022-08-21T09:22:19;5.72;;;2.20;;
6809;SDS011;3443;48.812;9.112;2022-08-21T09:27:19;3.70;;;1.88;;
6809;SDS011;3443;48.812;9.112;2022-08-21T09:29:48;5.63;;;2.40;;
6809;SDS011;3443;48.812;9.112;2022-08-21T09:32:29;10.13;;;2.35;;
6809;SDS011;3443;48.812;9.112;2022-08-21T09:34:59;4.07;;;2.20;;
6809;SDS011;3443;48.812;9.112;2022-08-21T09:37:27;4.82;;;2.15;;
6809;SDS011;3443;48.812;9.112;2022-08-21T09:39:54;3.88;;;2.33;;
6809;SDS011;3443;48.812;9.112;2022-08-21T09:42:26;3.15;;;2.17;;
6809;SDS011;3443;48.812;9.112;2022-08-21T09:45:06;5.25;;;2.20;;
6809;SDS011;3443;48.812;9.112;2022-08-21T09:47:33;2.10;;;1.90;;
6809;SDS011;3443;48.812;9.112;2022-08-21T09:50:07;3.90;;;2.30;;
6809;SDS011;3443;48.812;9.112;2022-08-21T09:52:33;7.03;;;2.22;;
6809;SDS011;3443;48.812;9.112;2022-08-21T09:55:00;4.55;;;2.05;;
6809;SDS011;3443;48.812;9.112;2022-08-21T09:57:46;4.43;;;2.47;;
6809;SDS011;3443;48.812;9.112;2022-08-21T10:02:46;3.17;;;1.83;;
6809;SDS011;3443;48.812;9.112;2022-08-21T10:05:25;3.55;;;2.15;;
6809;SDS011;3443;48.812;9.112;2022-08-21T10:07:53;2.95;;;2.50;;
6809;SDS011;3443;48.812;9.112;2022-08-21T10:10:23;3.90;;;2.13;;
6809;SDS011;3443;48.812;9.112;2022-08-21T10:13:12;5.63;;;2.60;;
6809;SDS011;3443;48.812;9.112;2022-08-21T10:18:20;7.85;;;2.63;;
6809;SDS011;3443;48.812;9.112;2022-08-21T10:21:08;3.75;;;2.28;;
6809;SDS011;3443;48.812;9.112;2022-08-21T10:28:37;5.90;;;2.47;;
6809;SDS011;3443;48.812;9.112;2022-08-21T10:36:13;5.95;;;2.38;;
6809;SDS011;3443;48.812;9.112;2022-08-21T10:38:52;5.10;;;2.28;;
6809;SDS011;3443;48.812;9.112;2022-08-21T10:41:23;3.75;;;2.50;;
6809;SDS011;3443;48.812;9.112;2022-08-21T10:49:02;4.97;;;2.60;;
6809;SDS011;3443;48.812;9.112;2022-08-21T10:51:36;3.28;;;2.38;;
6809;SDS011;3443;48.812;9.112;2022-08-21T10:56:58;4.43;;;2.50;;
6809;SDS011;3443;48.812;9.112;2022-08-21T10:59:33;6.15;;;2.38;;
6809;SDS011;3443;48.812;9.112;2022-08-21T11:07:48;3.40;;;1.90;;
6809;SDS011;3443;48.812;9.112;2022-08-21T11:09:55;6.10;;;2.17;;
6809;SDS011;3443;48.812;9.112;2022-08-21T11:17:53;2.78;;;1.98;;
6809;SDS011;3443;48.812;9.112;2022-08-21T11:20:31;5.20;;;2.00;;
6809;SDS011;3443;48.812;9.112;2022-08-21T11:25:27;4.07;;;2.15;;
6809;SDS011;3443;48.812;9.112;2022-08-21T11:28:00;2.70;;;2.25;;
6809;SDS011;3443;48.812;9.112;2022-08-21T11:30:31;9.05;;;2.50;;
6809;SDS011;3443;48.812;9.112;2022-08-21T11:45:47;5.45;;;2.17;;
6809;SDS011;3443;48.812;9.112;2022-08-21T11:48:36;6.65;;;1.98;;
6809;SDS011;3443;48.812;9.112;2022-08-21T11:51:08;3.17;;;1.88;;
6809;SDS011;3443;48.812;9.112;2022-08-21T11:53:42;4.70;;;2.53;;
6809;SDS011;3443;48.812;9.112;2022-08-21T11:56:20;3.95;;;2.35;;
6809;SDS011;3443;48.812;9.112;2022-08-21T11:58:49;4.47;;;2.83;;
6809;SDS011;3443;48.812;9.112;2022-08-21T12:01:18;2.28;;;2.08;;
6809;SDS011;3443;48.812;9.112;2022-08-21T12:06:38;3.30;;;2.10;;
6809;SDS011;3443;48.812;9.112;2022-08-21T12:09:29;2.95;;;2.00;;
6809;SDS011;3443;48.812;9.112;2022-08-21T12:12:13;3.80;;;2.03;;
6809;SDS011;3443;48.812;9.112;2022-08-21T12:14:40;2.88;;;2.13;;
6809;SDS011;3443;48.812;9.112;2022-08-21T12:17:08;3.05;;;2.00;;
6809;SDS011;3443;48.812;9.112;2022-08-21T12:19:34;5.15;;;2.63;;
6809;SDS011;3443;48.812;9.112;2022-08-21T12:26:57;4.82;;;2.15;;
6809;SDS011;3443;48.812;9.112;2022-08-21T12:29:31;2.70;;;2.05;;
6809;SDS011;3443;48.812;9.112;2022-08-21T12:34:30;4.25;;;2.35;;
6809;SDS011;3443;48.812;9.112;2022-08-21T12:36:59;2.10;;;1.90;;
6809;SDS011;3443;48.812;9.112;2022-08-21T12:39:26;4.50;;;2.25;;
6809;SDS011;3443;48.812;9.112;2022-08-21T12:41:56;2.55;;;2.00;;
6809;SDS011;3443;48.812;9.112;2022-08-21T12:44:27;3.85;;;1.85;;
6809;SDS011;3443;48.812;9.112;2022-08-21T12:46:57;3.92;;;2.00;;
6809;SDS011;3443;48.812;9.112;2022-08-21T12:51:57;2.30;;;2.10;;
6809;SDS011;3443;48.812;9.112;2022-08-21T12:54:28;3.08;;;1.80;;
6809;SDS011;3443;48.812;9.112;2022-08-21T12:56:58;3.38;;;1.90;;
6809;SDS011;3443;48.812;9.112;2022-08-21T12:59:25;4.88;;;1.65;;
6809;SDS011;3443;48.812;9.112;2022-08-21T13:01:51;5.85;;;2.13;;
6809;SDS011;3443;48.812;9.112;2022-08-21T13:04:21;3.45;;;1.92;;
6809;SDS011;3443;48.812;9.112;2022-08-21T13:06:52;4.15;;;2.70;;
6809;SDS011;3443;48.812;9.112;2022-08-21T13:09:20;4.18;;;2.08;;
6809;SDS011;3443;48.812;9.112;2022-08-21T13:11:48;2.88;;;2.25;;
6809;SDS011;3443;48.812;9.112;2022-08-21T13:14:17;3.53;;;2.20;;
6809;SDS011;3443;48.812;9.112;2022-08-21T13:16:45;2.33;;;2.08;;
6809;SDS011;3443;48.812;9.112;2022-08-21T13:19:16;2.92;;;2.08;;
6809;SDS011;3443;48.812;9.112;2022-08-21T13:21:44;2.47;;;1.70;;
6809;SDS011;3443;48.812;9.112;2022-08-21T13:26:36;2.60;;;2.20;;
6809;SDS011;3443;48.812;9.112;2022-08-21T13:29:13;2.35;;;2.10;;
6809;SDS011;3443;48.812;9.112;2022-08-21T13:31:46;2.78;;;1.95;;
6809;SDS011;3443;48.812;9.112;2022-08-21T13:34:12;2.40;;;1.88;;
6809;SDS011;3443;48.812;9.112;2022-08-21T13:36:40;2.92;;;2.08;;
6809;SDS011;3443;48.812;9.112;2022-08-21T13:39:08;2.38;;;1.75;;
6809;SDS011;3443;48.812;9.112;2022-08-21T13:41:35;4.38;;;2.30;;
6809;SDS011;3443;48.812;9.112;2022-08-21T13:44:04;2.60;;;2.40;;
6809;SDS011;3443;48.812;9.112;2022-08-21T13:46:34;2.70;;;2.00;;
6809;SDS011;3443;48.812;9.112;2022-08-21T13:49:01;3.15;;;1.98;;
6809;SDS011;3443;48.812;9.112;2022-08-21T13:51:28;2.42;;;1.92;;
6809;SDS011;3443;48.812;9.112;2022-08-21T13:53:56;3.08;;;1.80;;
6809;SDS011;3443;48.812;9.112;2022-08-21T13:56:26;2.95;;;2.30;;
6809;SDS011;3443;48.812;9.112;2022-08-21T13:58:55;2.83;;;1.83;;
6809;SDS011;3443;48.812;9.112;2022-08-21T14:01:23;1.85;;;1.60;;
6809;SDS011;3443;48.812;9.112;2022-08-21T14:03:52;3.45;;;2.03;;
6809;SDS011;3443;48.812;9.112;2022-08-21T14:06:22;3.13;;;1.60;;
6809;SDS011;3443;48.812;9.112;2022-08-21T14:08:59;2.55;;;1.70;;
6809;SDS011;3443;48.812;9.112;2022-08-21T14:11:26;2.35;;;1.63;;
6809;SDS011;3443;48.812;9.112;2022-08-21T14:16:24;3.90;;;1.83;;
6809;SDS011;3443;48.812;9.112;2022-08-21T14:19:07;3.78;;;2.00;;
6809;SDS011;3443;48.812;9.112;2022-08-21T14:21:35;2.33;;;2.00;;
6809;SDS011;3443;48.812;9.112;2022-08-21T14:26:34;1.80;;;1.40;;
6809;SDS011;3443;48.812;9.112;2022-08-21T14:29:01;2.47;;;1.77;;
6809;SDS011;3443;48.812;9.112;2022-08-21T14:31:28;3.92;;;1.98;;
6809;SDS011;3443;48.812;9.112;2022-08-21T14:33:55;1.75;;;1.65;;
6809;SDS011;3443;48.812;9.112;2022-08-21T14:36:22;2.40;;;1.73;;
6809;SDS011;3443;48.812;9.112;2022-08-21T14:38:48;1.85;;;1.50;;
6809;SDS011;3443;48.812;9.112;2022-08-21T14:41:18;2.90;;;1.50;;
6809;SDS011;3443;48.812;9.112;2022-08-21T14:43:45;3.38;;;1.80;;
6809;SDS011;3443;48.812;9.112;2022-08-21T14:46:12;3.25;;;1.88;;
6809;SDS011;3443;48.812;9.112;2022-08-21T14:48:39;2.53;;;1.52;;
6809;SDS011;3443;48.812;9.112;2022-08-21T14:51:05;3.22;;;1.80;;
6809;SDS011;3443;48.812;9.112;2022-08-21T14:53:31;2.15;;;1.67;;
6809;SDS011;3443;48.812;9.112;2022-08-21T14:55:57;1.88;;;1.60;;
6809;SDS011;3443;48.812;9.112;2022-08-21T14:58:29;1.45;;;1.33;;
6809;SDS011;3443;48.812;9.112;2022-08-21T15:00:56;1.98;;;1.50;;
6809;SDS011;3443;48.812;9.112;2022-08-21T15:03:23;1.65;;;1.35;;
6809;SDS011;3443;48.812;9.112;2022-08-21T15:05:52;2.97;;;1.90;;
6809;SDS011;3443;48.812;9.112;2022-08-21T15:08:18;1.52;;;1.33;;
6809;SDS011;3443;48.812;9.112;2022-08-21T15:10:44;3.13;;;1.70;;
6809;SDS011;3443;48.812;9.112;2022-08-21T15:13:10;1.77;;;1.58;;
6809;SDS011;3443;48.812;9.112;2022-08-21T15:15:39;2.25;;;1.98;;
6809;SDS011;3443;48.812;9.112;2022-08-21T15:18:06;2.20;;;1.50;;
6809;SDS011;3443;48.812;9.112;2022-08-21T15:20:32;2.28;;;1.35;;
6809;SDS011;3443;48.812;9.112;2022-08-21T15:22:58;1.73;;;1.60;;
6809;SDS011;3443;48.812;9.112;2022-08-21T15:25:25;2.35;;;1.48;;
6809;SDS011;3443;48.812;9.112;2022-08-21T15:27:51;1.38;;;1.30;;
6809;SDS011;3443;48.812;9.112;2022-08-21T15:30:18;2.13;;;1.60;;
6809;SDS011;3443;48.812;9.112;2022-08-21T15:32:44;1.92;;;1.83;;
6809;SDS011;3443;48.812;9.112;2022-08-21T15:35:10;1.60;;;1.50;;
6809;SDS011;3443;48.812;9.112;2022-08-21T15:37:37;2.58;;;1.38;;
6809;SDS011;3443;48.812;9.112;2022-08-21T15:40:03;2.97;;;1.80;;
6809;SDS011;3443;48.812;9.112;2022-08-21T15:42:31;1.80;;;1.70;;
6809;SDS011;3443;48.812;9.112;2022-08-21T15:44:57;1.67;;;1.58;;
6809;SDS011;3443;48.812;9.112;2022-08-21T15:47:31;2.08;;;1.88;;
6809;SDS011;3443;48.812;9.112;2022-08-21T15:49:58;3.92;;;1.77;;
6809;SDS011;3443;48.812;9.112;2022-08-21T15:52:24;3.03;;;1.85;;
6809;SDS011;3443;48.812;9.112;2022-08-21T15:54:51;2.75;;;1.58;;
6809;SDS011;3443;48.812;9.112;2022-08-21T15:57:18;4.25;;;1.80;;
6809;SDS011;3443;48.812;9.112;2022-08-21T15:59:47;2.08;;;1.80;;
6809;SDS011;3443;48.812;9.112;2022-08-21T16:02:15;2.00;;;1.75;;
6809;SDS011;3443;48.812;9.112;2022-08-21T16:04:43;1.83;;;1.73;;
6809;SDS011;3443;48.812;9.112;2022-08-21T16:07:09;3.95;;;3.63;;
6809;SDS011;3443;48.812;9.112;2022-08-21T16:09:35;3.58;;;2.90;;
6809;SDS011;3443;48.812;9.112;2022-08-21T16:12:02;3.78;;;3.25;;
6809;SDS011;3443;48.812;9.112;2022-08-21T16:14:29;3.65;;;1.90;;
6809;SDS011;3443;48.812;9.112;2022-08-21T16:16:55;2.90;;;1.60;;
6809;SDS011;3443;48.812;9.112;2022-08-21T16:19:22;3.08;;;2.10;;
6809;SDS011;3443;48.812;9.112;2022-08-21T16:21:48;3.33;;;3.00;;
6809;SDS011;3443;48.812;9.112;2022-08-21T16:24:14;3.50;;;3.20;;
6809;SDS011;3443;48.812;9.112;2022-08-21T16:26:40;2.55;;;2.15;;
6809;SDS011;3443;48.812;9.112;2022-08-21T16:29:06;3.55;;;2.05;;
6809;SDS011;3443;48.812;9.112;2022-08-21T16:31:33;2.50;;;1.63;;
6809;SDS011;3443;48.812;9.112;2022-08-21T16:33:59;2.80;;;2.15;;
6809;SDS011;3443;48.812;9.112;2022-08-21T16:36:26;1.80;;;1.70;;
6809;SDS011;3443;48.812;9.112;2022-08-21T16:38:53;2.72;;;1.73;;
6809;SDS011;3443;48.812;9.112;2022-08-21T16:41:20;1.55;;;1.45;;